ADDS METAR Data INFO
IDs: Format: Raw Decoded Include TAF

Data at: 0702 UTC 19 Oct 2017

KCVH 190650Z AUTO 00000KT 10SM CLR 08/07 A3004 RMK A01
KCVH 190630Z AUTO 21003KT 10SM CLR 09/07 A3004 RMK A01
KCVH 190610Z AUTO 00000KT 10SM CLR 08/06 A3004 RMK A01
KCVH 190550Z AUTO 00000KT 10SM CLR 09/07 A3004 RMK A01
KCVH 190530Z AUTO 00000KT 10SM CLR 10/07 A3003 RMK A01
KCVH 190510Z AUTO 22005KT 10SM CLR 10/08 A3003 RMK A01
KCVH 190450Z AUTO 21003KT 10SM CLR 10/08 A3003 RMK A01
KCVH 190430Z AUTO 19003KT 10SM CLR 10/07 A3003 RMK A01
KCVH 190410Z AUTO 00000KT 10SM CLR 10/08 A3003 RMK A01
KCVH 190350Z AUTO 00000KT 10SM CLR 11/08 A3003 RMK A01
KCVH 190330Z AUTO 21003KT 10SM CLR 11/08 A3003 RMK A01
KCVH 190310Z AUTO 19003KT 10SM CLR 12/08 A3002 RMK A01
KCVH 190250Z AUTO 22003KT 10SM CLR 12/08 A3003 RMK A01
KCVH 190230Z AUTO 27005KT 10SM CLR 12/08 A3003 RMK A01
KCVH 190210Z AUTO 25008KT 10SM CLR 12/08 A3002 RMK A01
KCVH 190150Z AUTO 23007KT 10SM CLR 13/08 A3002 RMK A01
KCVH 190130Z AUTO 27009KT 10SM CLR 14/08 A3001 RMK A01
KCVH 190110Z AUTO 27012KT 10SM CLR 15/07 A3000 RMK A01
KCVH 190050Z AUTO 26012KT 10SM CLR 15/07 A3000 RMK A01
KCVH 190030Z AUTO 27009G18KT 10SM CLR 17/07 A3000 RMK A01
KCVH 190010Z AUTO VRB06G14KT 10SM CLR 18/07 A3000 RMK A01
KCVH 182350Z AUTO 23014KT 10SM CLR 19/08 A2999 RMK A01
KCVH 182330Z AUTO 25014KT 10SM CLR 19/09 A2999 RMK A01
KCVH 182310Z AUTO 25016KT 10SM CLR 21/08 A2999 RMK A01
KCVH 182250Z AUTO 25014G20KT 10SM CLR 22/07 A2999 RMK A01
KCVH 182230Z AUTO 25014KT 10SM CLR 23/07 A2999 RMK A01
KCVH 182210Z AUTO 25012KT 10SM CLR 23/06 A2999 RMK A01
KCVH 182150Z AUTO 25009KT 10SM CLR 23/06 A2999 RMK A01
KCVH 182130Z AUTO 27008KT 10SM CLR 25/06 A2999 RMK A01
KCVH 182110Z AUTO 22005KT 10SM CLR 25/07 A2999 RMK A01
KCVH 182050Z AUTO 28007KT 10SM CLR 25/06 A3001 RMK A01
KCVH 182030Z AUTO 33005KT 10SM CLR 24/04 A3002 RMK A01
KCVH 182010Z AUTO 33004KT 10SM CLR 24/04 A3003 RMK A01
KCVH 181950Z AUTO 00000KT 10SM CLR 23/04 A3004 RMK A01
KCVH 181930Z AUTO 00000KT 10SM CLR 22/04 A3005 RMK A01
KCVH 181910Z AUTO 00000KT 10SM CLR 20/04 A3006 RMK A01
KCVH 181850Z AUTO 00000KT 10SM CLR 19/03 A3007 RMK A01
KCVH 181830Z AUTO 00000KT 10SM CLR 18/03 A3007 RMK A01
KCVH 181810Z AUTO 00000KT 10SM CLR 17/04 A3008 RMK A01
KCVH 181750Z AUTO 00000KT 9SM CLR 16/05 A3008 RMK A01
KCVH 181730Z AUTO 00000KT 9SM CLR 15/05 A3008 RMK A01
KCVH 181710Z AUTO 00000KT 9SM CLR 14/05 A3008 RMK A01
KCVH 181650Z AUTO 00000KT 9SM CLR 13/05 A3008 RMK A01
KCVH 181630Z AUTO 00000KT 10SM CLR 12/04 A3008 RMK A01
KCVH 181610Z AUTO 00000KT 10SM FEW110 12/04 A3008 RMK A01
KCVH 181550Z AUTO 00000KT 9SM FEW110 11/04 A3007 RMK A01
KCVH 181530Z AUTO 00000KT 9SM CLR 09/02 A3007 RMK A01
KCVH 181510Z AUTO 00000KT 9SM CLR 08/01 A3006 RMK A01
KCVH 181450Z AUTO 00000KT 9SM CLR 07/M02 A3006 RMK A01
KCVH 181430Z AUTO 35003KT 9SM CLR 07/M02 A3006 RMK A01
KCVH 181410Z AUTO 26004KT 10SM FEW120 08/M01 A3006 RMK A01
KCVH 181350Z AUTO 00000KT 10SM CLR 08/M00 A3005 RMK A01
KCVH 181330Z AUTO 15004KT 10SM CLR 08/00 A3005 RMK A01
KCVH 181310Z AUTO 14004KT 10SM CLR 08/M00 A3005 RMK A01
KCVH 181250Z AUTO 16004KT 10SM CLR 08/M01 A3005 RMK A01
KCVH 181230Z AUTO 00000KT 10SM CLR 08/M00 A3005 RMK A01
KCVH 181210Z AUTO 00000KT 10SM CLR 08/M01 A3004 RMK A01
KCVH 181150Z AUTO 03003KT 10SM CLR 09/M00 A3004 RMK A01
KCVH 181130Z AUTO 04003KT 10SM CLR 10/01 A3003 RMK A01
KCVH 181110Z AUTO 00000KT 10SM CLR 08/M00 A3004 RMK A01
KCVH 181050Z AUTO 00000KT 10SM CLR 09/01 A3004 RMK A01
KCVH 181030Z AUTO 09003KT 10SM CLR 10/00 A3005 RMK A01
KCVH 181010Z AUTO 00000KT 10SM CLR 09/M01 A3006 RMK A01
KCVH 180950Z AUTO 35003KT 10SM CLR 11/00 A3006 RMK A01
KCVH 180930Z AUTO 00000KT 10SM CLR 11/01 A3007 RMK A01
KCVH 180910Z AUTO 00000KT 10SM CLR 11/01 A3007 RMK A01
KCVH 180850Z AUTO 13003KT 10SM CLR 11/00 A3007 RMK A01
KCVH 180830Z AUTO 00000KT 10SM CLR 12/01 A3007 RMK A01
KCVH 180810Z AUTO 00000KT 10SM CLR 12/04 A3007 RMK A01
KCVH 180750Z AUTO 15004KT 10SM CLR 13/05 A3007 RMK A01
KCVH 180730Z AUTO 10004KT 10SM CLR 13/01 A3007 RMK A01
KCVH 180710Z AUTO 00000KT 10SM CLR 12/01 A3007 RMK A01
KCVH 180650Z AUTO 00000KT 10SM CLR 14/03 A3007 RMK A01
KCVH 180630Z AUTO 18003KT 10SM CLR 14/04 A3006 RMK A01
KCVH 180610Z AUTO 19006KT 10SM CLR 15/06 A3007 RMK A01
KCVH 180550Z AUTO 18006KT 10SM CLR 15/03 A3008 RMK A01
KCVH 180530Z AUTO 00000KT 10SM CLR 15/02 A3007 RMK A01
KCVH 180510Z AUTO 00000KT 10SM CLR 16/02 A3007 RMK A01
KCVH 180450Z AUTO 23008KT 10SM CLR 17/04 A3006 RMK A01
KCVH 180430Z AUTO 23005KT 10SM CLR 17/04 A3006 RMK A01
KCVH 180410Z AUTO 22005KT 10SM CLR 18/04 A3006 RMK A01
KCVH 180350Z AUTO 00000KT 10SM CLR 19/03 A3006 RMK A01
KCVH 180330Z AUTO 22005KT 10SM CLR 19/03 A3006 RMK A01
KCVH 180310Z AUTO 22006KT 10SM CLR 19/04 A3006 RMK A01
KCVH 180250Z AUTO 22008KT 10SM CLR 19/04 A3006 RMK A01
KCVH 180230Z AUTO 19006KT 10SM CLR 20/02 A3005 RMK A01
KCVH 180210Z AUTO 20004KT 10SM CLR 21/02 A3005 RMK A01
KCVH 180150Z AUTO 19004KT 10SM CLR 21/03 A3004 RMK A01
KCVH 180130Z AUTO 15004KT 10SM CLR 22/02 A3003 RMK A01
KCVH 180110Z AUTO 00000KT 10SM CLR 23/01 A3003 RMK A01
KCVH 180050Z AUTO 22004KT 10SM CLR 23/01 A3004 RMK A01
KCVH 180030Z AUTO 20005KT 10SM CLR 25/M00 A3004 RMK A01
KCVH 180010Z AUTO 25006KT 10SM CLR 25/00 A3005 RMK A01
KCVH 172350Z AUTO 25004KT 10SM CLR 26/01 A3005 RMK A01
KCVH 172330Z AUTO 25005KT 10SM CLR 26/01 A3005 RMK A01
KCVH 172310Z AUTO 27006KT 10SM CLR 26/00 A3005 RMK A01
KCVH 172250Z AUTO 27007KT 10SM FEW110 27/M00 A3005 RMK A01
KCVH 172230Z AUTO 25006KT 10SM CLR 28/01 A3005 RMK A01
KCVH 172210Z AUTO 27006KT 10SM CLR 28/01 A3005 RMK A01
KCVH 172150Z AUTO 26006KT 10SM CLR 28/01 A3005 RMK A01
KCVH 172130Z AUTO 00000KT 10SM CLR 28/01 A3005 RMK A01
KCVH 172110Z AUTO 00000KT 10SM CLR 28/01 A3006 RMK A01
KCVH 172050Z AUTO 00000KT 10SM CLR 27/01 A3007 RMK A01
KCVH 172030Z AUTO 00000KT 10SM CLR 27/01 A3008 RMK A01
KCVH 172010Z AUTO 32004KT 10SM CLR 27/01 A3008 RMK A01
KCVH 171950Z AUTO 34006KT 10SM CLR 26/00 A3009 RMK A01
KCVH 171930Z AUTO 00000KT 10SM CLR 25/00 A3010 RMK A01
KCVH 171910Z AUTO 00000KT 10SM CLR 25/M00 A3010 RMK A01